sensor_id;sensor_type;location;lat;lon;timestamp;P1;durP1;ratioP1;P2;durP2;ratioP2
50769;SDS011;36740;48.698;11.472;2022-08-26T00:01:59;22.80;;;11.85;;
50769;SDS011;36740;48.698;11.472;2022-08-26T00:04:45;14.90;;;10.27;;
50769;SDS011;36740;48.698;11.472;2022-08-26T00:07:31;20.05;;;10.40;;
50769;SDS011;36740;48.698;11.472;2022-08-26T00:10:17;24.48;;;13.88;;
50769;SDS011;36740;48.698;11.472;2022-08-26T00:13:03;25.08;;;13.45;;
50769;SDS011;36740;48.698;11.472;2022-08-26T00:15:49;19.13;;;12.15;;
50769;SDS011;36740;48.698;11.472;2022-08-26T00:18:36;25.15;;;12.93;;
50769;SDS011;36740;48.698;11.472;2022-08-26T00:21:22;16.38;;;10.75;;
50769;SDS011;36740;48.698;11.472;2022-08-26T00:24:08;21.65;;;11.27;;
50769;SDS011;36740;48.698;11.472;2022-08-26T00:26:54;22.73;;;12.25;;
50769;SDS011;36740;48.698;11.472;2022-08-26T00:29:40;16.38;;;9.43;;
50769;SDS011;36740;48.698;11.472;2022-08-26T00:32:26;21.52;;;11.02;;
50769;SDS011;36740;48.698;11.472;2022-08-26T00:35:12;17.95;;;10.05;;
50769;SDS011;36740;48.698;11.472;2022-08-26T00:37:58;18.08;;;10.73;;
50769;SDS011;36740;48.698;11.472;2022-08-26T00:40:46;27.08;;;13.20;;
50769;SDS011;36740;48.698;11.472;2022-08-26T00:43:34;14.93;;;10.65;;
50769;SDS011;36740;48.698;11.472;2022-08-26T00:46:20;24.67;;;10.57;;
50769;SDS011;36740;48.698;11.472;2022-08-26T00:49:15;17.63;;;11.07;;
50769;SDS011;36740;48.698;11.472;2022-08-26T00:52:02;18.35;;;10.27;;
50769;SDS011;36740;48.698;11.472;2022-08-26T00:54:58;23.15;;;12.75;;
50769;SDS011;36740;48.698;11.472;2022-08-26T00:57:45;24.17;;;11.80;;
50769;SDS011;36740;48.698;11.472;2022-08-26T01:00:31;18.10;;;11.40;;
50769;SDS011;36740;48.698;11.472;2022-08-26T01:03:16;17.77;;;11.10;;
50769;SDS011;36740;48.698;11.472;2022-08-26T01:06:03;17.45;;;11.30;;
50769;SDS011;36740;48.698;11.472;2022-08-26T01:08:50;17.52;;;11.35;;
50769;SDS011;36740;48.698;11.472;2022-08-26T01:11:36;15.63;;;11.30;;
50769;SDS011;36740;48.698;11.472;2022-08-26T01:14:22;22.98;;;11.07;;
50769;SDS011;36740;48.698;11.472;2022-08-26T01:17:08;22.33;;;12.25;;
50769;SDS011;36740;48.698;11.472;2022-08-26T01:20:03;19.65;;;11.48;;
50769;SDS011;36740;48.698;11.472;2022-08-26T01:22:52;15.68;;;11.60;;
50769;SDS011;36740;48.698;11.472;2022-08-26T01:25:41;48.20;;;14.10;;
50769;SDS011;36740;48.698;11.472;2022-08-26T01:28:28;26.52;;;13.00;;
50769;SDS011;36740;48.698;11.472;2022-08-26T01:31:16;18.20;;;11.60;;
50769;SDS011;36740;48.698;11.472;2022-08-26T01:39:48;24.73;;;14.45;;
50769;SDS011;36740;48.698;11.472;2022-08-26T01:42:34;24.67;;;11.63;;
50769;SDS011;36740;48.698;11.472;2022-08-26T01:45:20;21.10;;;11.98;;
50769;SDS011;36740;48.698;11.472;2022-08-26T01:48:08;27.65;;;12.73;;
50769;SDS011;36740;48.698;11.472;2022-08-26T01:50:56;25.35;;;12.73;;
50769;SDS011;36740;48.698;11.472;2022-08-26T01:53:42;24.90;;;12.07;;
50769;SDS011;36740;48.698;11.472;2022-08-26T01:56:28;29.02;;;13.05;;
50769;SDS011;36740;48.698;11.472;2022-08-26T01:59:14;22.30;;;11.63;;
50769;SDS011;36740;48.698;11.472;2022-08-26T02:02:01;16.83;;;9.98;;
50769;SDS011;36740;48.698;11.472;2022-08-26T02:04:52;21.10;;;11.55;;
50769;SDS011;36740;48.698;11.472;2022-08-26T02:07:38;18.48;;;9.65;;
50769;SDS011;36740;48.698;11.472;2022-08-26T02:10:24;17.00;;;12.15;;
50769;SDS011;36740;48.698;11.472;2022-08-26T02:13:10;22.63;;;13.50;;
50769;SDS011;36740;48.698;11.472;2022-08-26T02:15:56;20.35;;;14.05;;
50769;SDS011;36740;48.698;11.472;2022-08-26T02:18:43;23.90;;;13.95;;
50769;SDS011;36740;48.698;11.472;2022-08-26T02:21:29;23.10;;;14.32;;
50769;SDS011;36740;48.698;11.472;2022-08-26T02:24:17;20.85;;;12.15;;
50769;SDS011;36740;48.698;11.472;2022-08-26T02:27:03;22.17;;;12.60;;
50769;SDS011;36740;48.698;11.472;2022-08-26T02:29:56;25.65;;;12.88;;
50769;SDS011;36740;48.698;11.472;2022-08-26T02:32:44;22.20;;;12.27;;
50769;SDS011;36740;48.698;11.472;2022-08-26T02:35:31;23.77;;;11.77;;
50769;SDS011;36740;48.698;11.472;2022-08-26T02:38:16;25.38;;;13.43;;
50769;SDS011;36740;48.698;11.472;2022-08-26T02:41:02;16.73;;;11.05;;
50769;SDS011;36740;48.698;11.472;2022-08-26T02:43:48;24.58;;;12.73;;
50769;SDS011;36740;48.698;11.472;2022-08-26T02:46:33;22.02;;;11.63;;
50769;SDS011;36740;48.698;11.472;2022-08-26T02:49:20;19.42;;;12.10;;
50769;SDS011;36740;48.698;11.472;2022-08-26T02:52:05;18.60;;;11.05;;
50769;SDS011;36740;48.698;11.472;2022-08-26T02:54:51;27.95;;;12.48;;
50769;SDS011;36740;48.698;11.472;2022-08-26T02:57:37;21.27;;;12.98;;
50769;SDS011;36740;48.698;11.472;2022-08-26T03:00:23;23.05;;;9.90;;
50769;SDS011;36740;48.698;11.472;2022-08-26T03:03:09;22.85;;;12.23;;
50769;SDS011;36740;48.698;11.472;2022-08-26T03:05:54;17.60;;;10.75;;
50769;SDS011;36740;48.698;11.472;2022-08-26T03:08:40;22.30;;;13.40;;
50769;SDS011;36740;48.698;11.472;2022-08-26T03:11:26;20.77;;;13.38;;
50769;SDS011;36740;48.698;11.472;2022-08-26T03:14:11;31.75;;;11.07;;
50769;SDS011;36740;48.698;11.472;2022-08-26T03:16:57;19.77;;;11.93;;
50769;SDS011;36740;48.698;11.472;2022-08-26T03:19:43;20.25;;;13.40;;
50769;SDS011;36740;48.698;11.472;2022-08-26T03:22:29;19.75;;;11.32;;
50769;SDS011;36740;48.698;11.472;2022-08-26T03:25:15;19.40;;;11.05;;
50769;SDS011;36740;48.698;11.472;2022-08-26T03:28:01;20.40;;;11.25;;
50769;SDS011;36740;48.698;11.472;2022-08-26T03:30:46;29.98;;;12.68;;
50769;SDS011;36740;48.698;11.472;2022-08-26T03:33:33;23.00;;;13.70;;
50769;SDS011;36740;48.698;11.472;2022-08-26T03:36:19;23.08;;;14.38;;
50769;SDS011;36740;48.698;11.472;2022-08-26T03:39:06;22.02;;;12.80;;
50769;SDS011;36740;48.698;11.472;2022-08-26T03:41:52;18.23;;;12.05;;
50769;SDS011;36740;48.698;11.472;2022-08-26T03:44:37;30.63;;;12.23;;
50769;SDS011;36740;48.698;11.472;2022-08-26T03:47:23;16.90;;;11.38;;
50769;SDS011;36740;48.698;11.472;2022-08-26T03:50:10;21.95;;;10.10;;
50769;SDS011;36740;48.698;11.472;2022-08-26T03:52:56;32.53;;;12.27;;
50769;SDS011;36740;48.698;11.472;2022-08-26T03:55:42;22.08;;;13.23;;
50769;SDS011;36740;48.698;11.472;2022-08-26T03:58:27;24.25;;;12.43;;
50769;SDS011;36740;48.698;11.472;2022-08-26T04:01:13;14.73;;;11.23;;
50769;SDS011;36740;48.698;11.472;2022-08-26T04:03:59;22.45;;;12.75;;
50769;SDS011;36740;48.698;11.472;2022-08-26T04:06:45;21.48;;;10.48;;
50769;SDS011;36740;48.698;11.472;2022-08-26T04:09:31;17.33;;;11.85;;
50769;SDS011;36740;48.698;11.472;2022-08-26T04:12:16;19.70;;;10.75;;
50769;SDS011;36740;48.698;11.472;2022-08-26T04:15:06;28.35;;;13.80;;
50769;SDS011;36740;48.698;11.472;2022-08-26T04:17:52;20.90;;;12.50;;
50769;SDS011;36740;48.698;11.472;2022-08-26T04:20:37;19.33;;;11.98;;
50769;SDS011;36740;48.698;11.472;2022-08-26T04:23:23;22.55;;;11.60;;
50769;SDS011;36740;48.698;11.472;2022-08-26T04:26:11;21.50;;;12.18;;
50769;SDS011;36740;48.698;11.472;2022-08-26T04:28:57;24.63;;;12.80;;
50769;SDS011;36740;48.698;11.472;2022-08-26T04:31:43;20.25;;;12.65;;
50769;SDS011;36740;48.698;11.472;2022-08-26T04:34:28;17.02;;;10.77;;
50769;SDS011;36740;48.698;11.472;2022-08-26T04:37:14;17.80;;;11.13;;
50769;SDS011;36740;48.698;11.472;2022-08-26T04:40:00;24.70;;;12.73;;
50769;SDS011;36740;48.698;11.472;2022-08-26T04:42:46;27.27;;;13.07;;
50769;SDS011;36740;48.698;11.472;2022-08-26T04:45:34;19.60;;;12.88;;
50769;SDS011;36740;48.698;11.472;2022-08-26T04:48:19;17.73;;;10.48;;
50769;SDS011;36740;48.698;11.472;2022-08-26T04:51:05;19.35;;;12.32;;
50769;SDS011;36740;48.698;11.472;2022-08-26T04:53:51;18.98;;;11.70;;
50769;SDS011;36740;48.698;11.472;2022-08-26T04:56:37;19.30;;;11.35;;
50769;SDS011;36740;48.698;11.472;2022-08-26T04:59:23;20.08;;;10.43;;
50769;SDS011;36740;48.698;11.472;2022-08-26T05:02:09;16.80;;;11.02;;
50769;SDS011;36740;48.698;11.472;2022-08-26T05:04:55;19.58;;;10.35;;
50769;SDS011;36740;48.698;11.472;2022-08-26T05:07:41;18.92;;;10.57;;
50769;SDS011;36740;48.698;11.472;2022-08-26T05:10:27;17.73;;;11.77;;
50769;SDS011;36740;48.698;11.472;2022-08-26T05:13:14;18.17;;;10.63;;
50769;SDS011;36740;48.698;11.472;2022-08-26T05:16:03;16.00;;;9.52;;
50769;SDS011;36740;48.698;11.472;2022-08-26T05:18:49;19.13;;;11.70;;
50769;SDS011;36740;48.698;11.472;2022-08-26T05:21:39;17.60;;;10.93;;
50769;SDS011;36740;48.698;11.472;2022-08-26T05:24:24;17.88;;;11.32;;
50769;SDS011;36740;48.698;11.472;2022-08-26T05:27:10;21.73;;;10.82;;
50769;SDS011;36740;48.698;11.472;2022-08-26T05:29:56;22.17;;;11.98;;
50769;SDS011;36740;48.698;11.472;2022-08-26T05:32:42;27.27;;;13.75;;
50769;SDS011;36740;48.698;11.472;2022-08-26T05:35:28;19.75;;;12.18;;
50769;SDS011;36740;48.698;11.472;2022-08-26T05:38:19;23.45;;;14.57;;
50769;SDS011;36740;48.698;11.472;2022-08-26T05:41:11;21.05;;;12.57;;
50769;SDS011;36740;48.698;11.472;2022-08-26T05:43:58;17.17;;;11.77;;
50769;SDS011;36740;48.698;11.472;2022-08-26T05:46:44;20.42;;;12.25;;
50769;SDS011;36740;48.698;11.472;2022-08-26T05:49:30;24.27;;;11.68;;
50769;SDS011;36740;48.698;11.472;2022-08-26T05:52:16;24.85;;;14.98;;
50769;SDS011;36740;48.698;11.472;2022-08-26T05:55:01;19.95;;;11.30;;
50769;SDS011;36740;48.698;11.472;2022-08-26T05:57:47;20.83;;;13.40;;
50769;SDS011;36740;48.698;11.472;2022-08-26T06:00:33;17.98;;;11.82;;
50769;SDS011;36740;48.698;11.472;2022-08-26T06:03:19;16.15;;;10.35;;
50769;SDS011;36740;48.698;11.472;2022-08-26T06:06:05;19.67;;;12.52;;
50769;SDS011;36740;48.698;11.472;2022-08-26T06:08:51;27.25;;;13.43;;
50769;SDS011;36740;48.698;11.472;2022-08-26T06:11:37;20.63;;;12.70;;
50769;SDS011;36740;48.698;11.472;2022-08-26T06:14:23;22.25;;;15.30;;
50769;SDS011;36740;48.698;11.472;2022-08-26T06:17:10;23.92;;;12.70;;
50769;SDS011;36740;48.698;11.472;2022-08-26T06:19:55;19.75;;;11.15;;
50769;SDS011;36740;48.698;11.472;2022-08-26T06:22:41;16.90;;;11.80;;
50769;SDS011;36740;48.698;11.472;2022-08-26T06:25:46;17.05;;;10.60;;
50769;SDS011;36740;48.698;11.472;2022-08-26T06:28:32;19.95;;;12.80;;
50769;SDS011;36740;48.698;11.472;2022-08-26T06:31:18;17.05;;;10.48;;
50769;SDS011;36740;48.698;11.472;2022-08-26T06:34:04;27.13;;;13.48;;
50769;SDS011;36740;48.698;11.472;2022-08-26T06:36:50;33.75;;;10.10;;
50769;SDS011;36740;48.698;11.472;2022-08-26T06:39:35;25.48;;;13.10;;
50769;SDS011;36740;48.698;11.472;2022-08-26T06:42:21;22.75;;;9.80;;
50769;SDS011;36740;48.698;11.472;2022-08-26T06:45:07;16.42;;;11.70;;
50769;SDS011;36740;48.698;11.472;2022-08-26T06:47:53;16.27;;;11.43;;
50769;SDS011;36740;48.698;11.472;2022-08-26T06:50:38;15.20;;;10.02;;
50769;SDS011;36740;48.698;11.472;2022-08-26T06:53:25;19.70;;;12.25;;
50769;SDS011;36740;48.698;11.472;2022-08-26T06:56:12;22.10;;;11.25;;
50769;SDS011;36740;48.698;11.472;2022-08-26T06:58:58;22.33;;;9.27;;
50769;SDS011;36740;48.698;11.472;2022-08-26T07:01:44;21.30;;;11.75;;
50769;SDS011;36740;48.698;11.472;2022-08-26T07:04:35;21.13;;;12.55;;
50769;SDS011;36740;48.698;11.472;2022-08-26T07:07:20;27.88;;;11.55;;
50769;SDS011;36740;48.698;11.472;2022-08-26T07:10:06;19.95;;;13.25;;
50769;SDS011;36740;48.698;11.472;2022-08-26T07:12:52;22.55;;;13.63;;
50769;SDS011;36740;48.698;11.472;2022-08-26T07:15:39;19.90;;;11.20;;
50769;SDS011;36740;48.698;11.472;2022-08-26T07:18:25;18.42;;;11.20;;
50769;SDS011;36740;48.698;11.472;2022-08-26T07:21:12;25.50;;;11.63;;
50769;SDS011;36740;48.698;11.472;2022-08-26T07:23:58;21.30;;;12.02;;
50769;SDS011;36740;48.698;11.472;2022-08-26T07:26:44;16.73;;;11.23;;
50769;SDS011;36740;48.698;11.472;2022-08-26T07:29:29;21.20;;;11.15;;
50769;SDS011;36740;48.698;11.472;2022-08-26T07:32:15;24.85;;;12.13;;
50769;SDS011;36740;48.698;11.472;2022-08-26T07:35:04;19.27;;;11.88;;
50769;SDS011;36740;48.698;11.472;2022-08-26T07:37:50;17.23;;;9.90;;
50769;SDS011;36740;48.698;11.472;2022-08-26T07:40:36;16.15;;;11.48;;
50769;SDS011;36740;48.698;11.472;2022-08-26T07:43:22;14.48;;;10.00;;
50769;SDS011;36740;48.698;11.472;2022-08-26T07:46:08;14.32;;;9.13;;
50769;SDS011;36740;48.698;11.472;2022-08-26T07:48:54;23.70;;;11.38;;
50769;SDS011;36740;48.698;11.472;2022-08-26T07:51:40;22.10;;;10.27;;
50769;SDS011;36740;48.698;11.472;2022-08-26T07:54:26;20.27;;;10.40;;
50769;SDS011;36740;48.698;11.472;2022-08-26T07:57:11;13.98;;;8.90;;
50769;SDS011;36740;48.698;11.472;2022-08-26T07:59:57;21.25;;;8.60;;
50769;SDS011;36740;48.698;11.472;2022-08-26T08:02:43;17.17;;;10.05;;
50769;SDS011;36740;48.698;11.472;2022-08-26T08:05:29;17.35;;;9.10;;
50769;SDS011;36740;48.698;11.472;2022-08-26T08:08:16;15.15;;;9.75;;
50769;SDS011;36740;48.698;11.472;2022-08-26T08:11:02;14.60;;;8.98;;
50769;SDS011;36740;48.698;11.472;2022-08-26T08:13:48;13.77;;;9.20;;
50769;SDS011;36740;48.698;11.472;2022-08-26T08:16:34;13.95;;;7.57;;
50769;SDS011;36740;48.698;11.472;2022-08-26T08:19:21;16.75;;;7.50;;
50769;SDS011;36740;48.698;11.472;2022-08-26T08:22:07;18.55;;;8.13;;
50769;SDS011;36740;48.698;11.472;2022-08-26T08:24:53;12.93;;;6.82;;
50769;SDS011;36740;48.698;11.472;2022-08-26T08:27:39;17.13;;;7.60;;
50769;SDS011;36740;48.698;11.472;2022-08-26T08:30:25;12.00;;;6.82;;
50769;SDS011;36740;48.698;11.472;2022-08-26T08:33:12;15.75;;;7.25;;
50769;SDS011;36740;48.698;11.472;2022-08-26T08:35:58;17.50;;;7.93;;
50769;SDS011;36740;48.698;11.472;2022-08-26T08:38:44;11.95;;;7.43;;
50769;SDS011;36740;48.698;11.472;2022-08-26T08:41:40;15.00;;;8.32;;
50769;SDS011;36740;48.698;11.472;2022-08-26T08:44:25;12.57;;;8.00;;
50769;SDS011;36740;48.698;11.472;2022-08-26T08:47:14;17.45;;;7.85;;
50769;SDS011;36740;48.698;11.472;2022-08-26T08:50:16;10.52;;;6.15;;
50769;SDS011;36740;48.698;11.472;2022-08-26T08:53:09;13.98;;;7.18;;
50769;SDS011;36740;48.698;11.472;2022-08-26T09:10:43;12.45;;;6.25;;
50769;SDS011;36740;48.698;11.472;2022-08-26T09:13:30;13.25;;;7.68;;
50769;SDS011;36740;48.698;11.472;2022-08-26T09:16:20;12.40;;;7.82;;
50769;SDS011;36740;48.698;11.472;2022-08-26T09:19:12;16.75;;;6.30;;
50769;SDS011;36740;48.698;11.472;2022-08-26T09:21:59;13.40;;;4.95;;
50769;SDS011;36740;48.698;11.472;2022-08-26T09:24:45;13.93;;;6.40;;
50769;SDS011;36740;48.698;11.472;2022-08-26T09:27:45;9.77;;;5.50;;
50769;SDS011;36740;48.698;11.472;2022-08-26T09:30:32;10.35;;;6.70;;
50769;SDS011;36740;48.698;11.472;2022-08-26T09:33:19;10.90;;;4.45;;
50769;SDS011;36740;48.698;11.472;2022-08-26T09:36:21;15.65;;;5.68;;
50769;SDS011;36740;48.698;11.472;2022-08-26T09:45:04;10.65;;;6.18;;
50769;SDS011;36740;48.698;11.472;2022-08-26T09:47:54;11.35;;;5.63;;
50769;SDS011;36740;48.698;11.472;2022-08-26T09:50:54;19.73;;;6.13;;
50769;SDS011;36740;48.698;11.472;2022-08-26T09:53:51;17.55;;;6.57;;
50769;SDS011;36740;48.698;11.472;2022-08-26T09:56:37;8.35;;;4.82;;
50769;SDS011;36740;48.698;11.472;2022-08-26T09:59:29;16.75;;;6.65;;
50769;SDS011;36740;48.698;11.472;2022-08-26T10:02:16;12.38;;;5.70;;
50769;SDS011;36740;48.698;11.472;2022-08-26T10:05:06;14.52;;;6.32;;
50769;SDS011;36740;48.698;11.472;2022-08-26T10:07:52;23.25;;;6.65;;
50769;SDS011;36740;48.698;11.472;2022-08-26T10:10:38;12.90;;;6.40;;
50769;SDS011;36740;48.698;11.472;2022-08-26T10:13:32;13.50;;;5.88;;
50769;SDS011;36740;48.698;11.472;2022-08-26T10:16:19;14.85;;;5.97;;
50769;SDS011;36740;48.698;11.472;2022-08-26T10:19:14;12.15;;;5.57;;
50769;SDS011;36740;48.698;11.472;2022-08-26T10:24:52;15.23;;;7.63;;
50769;SDS011;36740;48.698;11.472;2022-08-26T10:30:36;13.32;;;6.78;;
50769;SDS011;36740;48.698;11.472;2022-08-26T10:33:23;15.52;;;6.80;;
50769;SDS011;36740;48.698;11.472;2022-08-26T10:36:10;11.18;;;5.82;;
50769;SDS011;36740;48.698;11.472;2022-08-26T10:39:36;14.55;;;6.32;;
50769;SDS011;36740;48.698;11.472;2022-08-26T10:42:34;10.68;;;5.35;;
50769;SDS011;36740;48.698;11.472;2022-08-26T10:45:23;15.50;;;6.03;;
50769;SDS011;36740;48.698;11.472;2022-08-26T10:51:23;15.18;;;6.82;;
50769;SDS011;36740;48.698;11.472;2022-08-26T11:00:12;12.73;;;6.38;;
50769;SDS011;36740;48.698;11.472;2022-08-26T11:06:15;15.95;;;7.18;;
50769;SDS011;36740;48.698;11.472;2022-08-26T11:09:02;14.52;;;7.03;;
50769;SDS011;36740;48.698;11.472;2022-08-26T11:11:49;14.57;;;6.72;;
50769;SDS011;36740;48.698;11.472;2022-08-26T11:14:35;10.63;;;6.72;;
50769;SDS011;36740;48.698;11.472;2022-08-26T11:17:52;18.92;;;8.02;;
50769;SDS011;36740;48.698;11.472;2022-08-26T11:20:42;10.93;;;6.95;;
50769;SDS011;36740;48.698;11.472;2022-08-26T11:26:15;13.70;;;7.05;;
50769;SDS011;36740;48.698;11.472;2022-08-26T11:29:01;17.05;;;7.47;;
50769;SDS011;36740;48.698;11.472;2022-08-26T11:34:53;12.52;;;7.22;;
50769;SDS011;36740;48.698;11.472;2022-08-26T11:43:12;15.82;;;8.10;;
50769;SDS011;36740;48.698;11.472;2022-08-26T11:46:03;16.08;;;6.60;;
50769;SDS011;36740;48.698;11.472;2022-08-26T11:48:49;24.17;;;6.93;;
50769;SDS011;36740;48.698;11.472;2022-08-26T11:51:35;13.27;;;7.90;;
50769;SDS011;36740;48.698;11.472;2022-08-26T11:54:21;17.38;;;9.70;;
50769;SDS011;36740;48.698;11.472;2022-08-26T11:57:07;18.33;;;7.47;;
50769;SDS011;36740;48.698;11.472;2022-08-26T11:59:56;14.90;;;6.70;;
50769;SDS011;36740;48.698;11.472;2022-08-26T12:02:42;14.35;;;7.35;;
50769;SDS011;36740;48.698;11.472;2022-08-26T12:05:29;14.68;;;7.50;;
50769;SDS011;36740;48.698;11.472;2022-08-26T12:08:16;17.85;;;8.75;;
50769;SDS011;36740;48.698;11.472;2022-08-26T12:11:06;21.95;;;7.90;;
50769;SDS011;36740;48.698;11.472;2022-08-26T12:13:58;11.88;;;7.05;;
50769;SDS011;36740;48.698;11.472;2022-08-26T12:16:44;11.07;;;5.78;;
50769;SDS011;36740;48.698;11.472;2022-08-26T12:19:31;28.17;;;8.25;;
50769;SDS011;36740;48.698;11.472;2022-08-26T12:22:28;11.07;;;6.45;;
50769;SDS011;36740;48.698;11.472;2022-08-26T12:25:14;10.77;;;5.20;;
50769;SDS011;36740;48.698;11.472;2022-08-26T12:28:06;22.75;;;6.57;;
50769;SDS011;36740;48.698;11.472;2022-08-26T12:30:59;12.75;;;6.22;;
50769;SDS011;36740;48.698;11.472;2022-08-26T12:33:46;16.05;;;5.65;;
50769;SDS011;36740;48.698;11.472;2022-08-26T12:36:42;12.50;;;6.93;;
50769;SDS011;36740;48.698;11.472;2022-08-26T12:39:37;13.07;;;6.55;;
50769;SDS011;36740;48.698;11.472;2022-08-26T12:42:37;10.75;;;5.43;;
50769;SDS011;36740;48.698;11.472;2022-08-26T12:45:25;10.45;;;5.85;;
50769;SDS011;36740;48.698;11.472;2022-08-26T12:48:14;12.05;;;5.55;;
50769;SDS011;36740;48.698;11.472;2022-08-26T12:51:05;13.45;;;6.40;;
50769;SDS011;36740;48.698;11.472;2022-08-26T12:53:51;16.98;;;8.20;;
50769;SDS011;36740;48.698;11.472;2022-08-26T12:56:37;15.75;;;7.28;;
50769;SDS011;36740;48.698;11.472;2022-08-26T12:59:24;13.13;;;6.15;;
50769;SDS011;36740;48.698;11.472;2022-08-26T13:02:10;11.77;;;6.50;;
50769;SDS011;36740;48.698;11.472;2022-08-26T13:05:24;14.73;;;6.28;;
50769;SDS011;36740;48.698;11.472;2022-08-26T13:08:28;21.05;;;6.25;;
50769;SDS011;36740;48.698;11.472;2022-08-26T13:11:16;14.05;;;7.05;;
50769;SDS011;36740;48.698;11.472;2022-08-26T13:14:08;14.18;;;5.43;;
50769;SDS011;36740;48.698;11.472;2022-08-26T13:16:54;16.13;;;7.03;;
50769;SDS011;36740;48.698;11.472;2022-08-26T13:19:40;11.90;;;5.70;;
50769;SDS011;36740;48.698;11.472;2022-08-26T13:22:25;10.60;;;6.15;;
50769;SDS011;36740;48.698;11.472;2022-08-26T13:25:11;10.38;;;6.57;;
50769;SDS011;36740;48.698;11.472;2022-08-26T13:27:57;14.70;;;7.10;;
50769;SDS011;36740;48.698;11.472;2022-08-26T13:30:43;11.15;;;6.63;;
50769;SDS011;36740;48.698;11.472;2022-08-26T13:33:30;14.05;;;6.43;;
50769;SDS011;36740;48.698;11.472;2022-08-26T13:36:16;10.18;;;5.93;;
50769;SDS011;36740;48.698;11.472;2022-08-26T13:39:04;16.58;;;7.70;;
50769;SDS011;36740;48.698;11.472;2022-08-26T13:41:50;13.13;;;5.78;;
50769;SDS011;36740;48.698;11.472;2022-08-26T13:44:36;19.95;;;6.85;;
50769;SDS011;36740;48.698;11.472;2022-08-26T13:47:23;18.17;;;6.25;;
50769;SDS011;36740;48.698;11.472;2022-08-26T13:50:10;6.05;;;4.85;;
50769;SDS011;36740;48.698;11.472;2022-08-26T13:52:55;9.45;;;5.60;;
50769;SDS011;36740;48.698;11.472;2022-08-26T13:55:41;23.25;;;6.30;;
50769;SDS011;36740;48.698;11.472;2022-08-26T13:58:27;18.63;;;6.35;;
50769;SDS011;36740;48.698;11.472;2022-08-26T14:01:13;17.27;;;7.53;;
50769;SDS011;36740;48.698;11.472;2022-08-26T14:03:59;10.65;;;5.60;;
50769;SDS011;36740;48.698;11.472;2022-08-26T14:06:47;12.15;;;6.28;;
50769;SDS011;36740;48.698;11.472;2022-08-26T14:09:32;16.33;;;6.78;;
50769;SDS011;36740;48.698;11.472;2022-08-26T14:12:18;9.48;;;5.07;;
50769;SDS011;36740;48.698;11.472;2022-08-26T14:15:04;14.85;;;6.47;;
50769;SDS011;36740;48.698;11.472;2022-08-26T14:17:50;21.13;;;8.20;;
50769;SDS011;36740;48.698;11.472;2022-08-26T14:20:37;15.27;;;5.20;;
50769;SDS011;36740;48.698;11.472;2022-08-26T14:23:22;10.73;;;4.55;;
50769;SDS011;36740;48.698;11.472;2022-08-26T14:26:08;16.15;;;6.68;;
50769;SDS011;36740;48.698;11.472;2022-08-26T14:28:56;15.68;;;5.95;;
50769;SDS011;36740;48.698;11.472;2022-08-26T14:31:41;12.38;;;4.68;;
50769;SDS011;36740;48.698;11.472;2022-08-26T14:34:27;10.45;;;5.13;;
50769;SDS011;36740;48.698;11.472;2022-08-26T14:37:13;8.15;;;5.05;;
50769;SDS011;36740;48.698;11.472;2022-08-26T14:39:59;9.90;;;5.22;;
50769;SDS011;36740;48.698;11.472;2022-08-26T14:42:45;15.55;;;4.78;;
50769;SDS011;36740;48.698;11.472;2022-08-26T14:45:31;10.45;;;5.38;;
50769;SDS011;36740;48.698;11.472;2022-08-26T14:48:19;9.52;;;4.18;;
50769;SDS011;36740;48.698;11.472;2022-08-26T14:51:05;14.15;;;5.35;;
50769;SDS011;36740;48.698;11.472;2022-08-26T14:53:51;17.90;;;7.25;;
50769;SDS011;36740;48.698;11.472;2022-08-26T14:57:06;12.93;;;5.97;;
50769;SDS011;36740;48.698;11.472;2022-08-26T14:59:52;12.85;;;6.65;;
50769;SDS011;36740;48.698;11.472;2022-08-26T15:02:38;22.15;;;7.97;;
50769;SDS011;36740;48.698;11.472;2022-08-26T15:05:24;11.40;;;5.82;;
50769;SDS011;36740;48.698;11.472;2022-08-26T15:08:09;15.85;;;8.30;;
50769;SDS011;36740;48.698;11.472;2022-08-26T15:10:55;15.15;;;7.47;;
50769;SDS011;36740;48.698;11.472;2022-08-26T15:13:42;13.50;;;7.53;;
50769;SDS011;36740;48.698;11.472;2022-08-26T15:16:28;16.23;;;7.13;;
50769;SDS011;36740;48.698;11.472;2022-08-26T15:19:15;17.02;;;7.13;;
50769;SDS011;36740;48.698;11.472;2022-08-26T15:22:01;18.33;;;8.23;;
50769;SDS011;36740;48.698;11.472;2022-08-26T15:24:47;14.25;;;7.68;;
50769;SDS011;36740;48.698;11.472;2022-08-26T15:27:33;21.48;;;7.13;;
50769;SDS011;36740;48.698;11.472;2022-08-26T15:30:18;17.15;;;8.02;;
50769;SDS011;36740;48.698;11.472;2022-08-26T15:33:04;21.65;;;9.02;;
50769;SDS011;36740;48.698;11.472;2022-08-26T15:35:49;16.95;;;9.38;;
50769;SDS011;36740;48.698;11.472;2022-08-26T15:38:36;13.35;;;7.18;;
50769;SDS011;36740;48.698;11.472;2022-08-26T15:41:22;15.60;;;9.05;;
50769;SDS011;36740;48.698;11.472;2022-08-26T15:44:08;19.30;;;8.05;;
50769;SDS011;36740;48.698;11.472;2022-08-26T15:46:54;13.52;;;7.70;;
50769;SDS011;36740;48.698;11.472;2022-08-26T15:49:40;18.20;;;9.48;;
50769;SDS011;36740;48.698;11.472;2022-08-26T15:52:26;19.80;;;8.25;;
50769;SDS011;36740;48.698;11.472;2022-08-26T15:55:11;14.63;;;7.85;;
50769;SDS011;36740;48.698;11.472;2022-08-26T15:57:57;18.42;;;9.38;;
50769;SDS011;36740;48.698;11.472;2022-08-26T16:00:42;19.73;;;8.75;;
50769;SDS011;36740;48.698;11.472;2022-08-26T16:03:29;21.40;;;9.63;;
50769;SDS011;36740;48.698;11.472;2022-08-26T16:06:15;17.35;;;7.88;;
50769;SDS011;36740;48.698;11.472;2022-08-26T16:09:01;23.67;;;9.48;;
50769;SDS011;36740;48.698;11.472;2022-08-26T16:11:46;22.35;;;9.60;;
50769;SDS011;36740;48.698;11.472;2022-08-26T16:14:32;15.13;;;8.43;;
50769;SDS011;36740;48.698;11.472;2022-08-26T16:17:19;18.77;;;9.00;;
50769;SDS011;36740;48.698;11.472;2022-08-26T16:20:04;14.30;;;9.55;;
50769;SDS011;36740;48.698;11.472;2022-08-26T16:22:50;14.02;;;9.93;;
50769;SDS011;36740;48.698;11.472;2022-08-26T16:25:37;20.67;;;10.45;;
50769;SDS011;36740;48.698;11.472;2022-08-26T16:28:22;19.48;;;8.65;;
50769;SDS011;36740;48.698;11.472;2022-08-26T16:31:08;15.57;;;9.00;;
50769;SDS011;36740;48.698;11.472;2022-08-26T16:33:54;16.38;;;8.95;;
50769;SDS011;36740;48.698;11.472;2022-08-26T16:36:40;14.77;;;8.30;;
50769;SDS011;36740;48.698;11.472;2022-08-26T16:39:25;12.23;;;8.05;;
50769;SDS011;36740;48.698;11.472;2022-08-26T16:42:11;15.73;;;9.32;;
50769;SDS011;36740;48.698;11.472;2022-08-26T16:44:56;14.57;;;8.27;;
50769;SDS011;36740;48.698;11.472;2022-08-26T16:47:43;15.70;;;8.55;;
50769;SDS011;36740;48.698;11.472;2022-08-26T16:50:28;17.20;;;7.10;;
50769;SDS011;36740;48.698;11.472;2022-08-26T16:53:14;15.95;;;9.38;;
50769;SDS011;36740;48.698;11.472;2022-08-26T16:56:00;12.98;;;8.35;;
50769;SDS011;36740;48.698;11.472;2022-08-26T16:58:45;13.63;;;8.20;;
50769;SDS011;36740;48.698;11.472;2022-08-26T17:01:32;13.48;;;7.63;;
50769;SDS011;36740;48.698;11.472;2022-08-26T17:04:18;11.20;;;7.55;;
50769;SDS011;36740;48.698;11.472;2022-08-26T17:07:04;10.52;;;8.07;;
50769;SDS011;36740;48.698;11.472;2022-08-26T17:09:49;33.22;;;8.88;;